sensor_id;sensor_type;location;lat;lon;timestamp;P1;durP1;ratioP1;P2;durP2;ratioP2
13455;SDS011;6800;50.940;6.940;2023-02-11T00:02:44;22.63;;;19.07;;
13455;SDS011;6800;50.940;6.940;2023-02-11T00:06:48;23.70;;;18.63;;
13455;SDS011;6800;50.940;6.940;2023-02-11T00:10:53;22.73;;;19.30;;
13455;SDS011;6800;50.940;6.940;2023-02-11T00:14:55;25.33;;;19.00;;
13455;SDS011;6800;50.940;6.940;2023-02-11T00:18:59;26.10;;;21.03;;
13455;SDS011;6800;50.940;6.940;2023-02-11T00:23:02;27.93;;;22.53;;
13455;SDS011;6800;50.940;6.940;2023-02-11T00:27:03;23.10;;;18.93;;
13455;SDS011;6800;50.940;6.940;2023-02-11T00:31:04;24.60;;;18.33;;
13455;SDS011;6800;50.940;6.940;2023-02-11T00:35:06;26.10;;;21.27;;
13455;SDS011;6800;50.940;6.940;2023-02-11T00:39:08;22.30;;;18.53;;
13455;SDS011;6800;50.940;6.940;2023-02-11T00:43:09;21.50;;;17.77;;
13455;SDS011;6800;50.940;6.940;2023-02-11T00:47:11;19.40;;;16.70;;
13455;SDS011;6800;50.940;6.940;2023-02-11T00:51:12;22.53;;;17.20;;
13455;SDS011;6800;50.940;6.940;2023-02-11T00:55:14;21.30;;;17.27;;
13455;SDS011;6800;50.940;6.940;2023-02-11T00:59:15;20.80;;;18.00;;
13455;SDS011;6800;50.940;6.940;2023-02-11T01:03:17;23.53;;;19.67;;
13455;SDS011;6800;50.940;6.940;2023-02-11T01:07:18;20.23;;;17.03;;
13455;SDS011;6800;50.940;6.940;2023-02-11T01:11:20;24.60;;;17.40;;
13455;SDS011;6800;50.940;6.940;2023-02-11T01:15:21;20.63;;;17.20;;
13455;SDS011;6800;50.940;6.940;2023-02-11T01:19:23;21.43;;;17.40;;
13455;SDS011;6800;50.940;6.940;2023-02-11T01:23:24;22.00;;;18.20;;
13455;SDS011;6800;50.940;6.940;2023-02-11T01:27:26;22.33;;;18.13;;
13455;SDS011;6800;50.940;6.940;2023-02-11T01:31:27;25.90;;;17.67;;
13455;SDS011;6800;50.940;6.940;2023-02-11T01:35:30;24.57;;;20.87;;
13455;SDS011;6800;50.940;6.940;2023-02-11T01:39:32;23.30;;;18.83;;
13455;SDS011;6800;50.940;6.940;2023-02-11T01:43:36;23.60;;;18.90;;
13455;SDS011;6800;50.940;6.940;2023-02-11T01:47:39;26.17;;;19.40;;
13455;SDS011;6800;50.940;6.940;2023-02-11T01:51:43;25.93;;;20.13;;
13455;SDS011;6800;50.940;6.940;2023-02-11T01:55:51;25.77;;;20.07;;
13455;SDS011;6800;50.940;6.940;2023-02-11T02:00:22;25.97;;;20.17;;
13455;SDS011;6800;50.940;6.940;2023-02-11T02:04:27;24.97;;;19.63;;
13455;SDS011;6800;50.940;6.940;2023-02-11T02:08:35;27.73;;;20.20;;
13455;SDS011;6800;50.940;6.940;2023-02-11T02:12:37;22.77;;;18.27;;
13455;SDS011;6800;50.940;6.940;2023-02-11T02:16:39;29.43;;;21.77;;
13455;SDS011;6800;50.940;6.940;2023-02-11T02:20:47;24.87;;;20.30;;
13455;SDS011;6800;50.940;6.940;2023-02-11T02:25:07;22.57;;;19.10;;
13455;SDS011;6800;50.940;6.940;2023-02-11T02:38:58;26.30;;;22.23;;
13455;SDS011;6800;50.940;6.940;2023-02-11T02:43:07;23.30;;;20.47;;
13455;SDS011;6800;50.940;6.940;2023-02-11T02:47:10;26.43;;;22.03;;
13455;SDS011;6800;50.940;6.940;2023-02-11T02:55:57;30.00;;;21.47;;
13455;SDS011;6800;50.940;6.940;2023-02-11T03:00:28;25.63;;;21.27;;
13455;SDS011;6800;50.940;6.940;2023-02-11T03:04:43;28.17;;;22.43;;
13455;SDS011;6800;50.940;6.940;2023-02-11T03:08:54;28.77;;;22.57;;
13455;SDS011;6800;50.940;6.940;2023-02-11T03:12:59;31.30;;;23.57;;
13455;SDS011;6800;50.940;6.940;2023-02-11T03:17:03;33.27;;;23.70;;
13455;SDS011;6800;50.940;6.940;2023-02-11T03:21:06;28.20;;;22.93;;
13455;SDS011;6800;50.940;6.940;2023-02-11T03:25:10;30.00;;;23.50;;
13455;SDS011;6800;50.940;6.940;2023-02-11T03:29:23;29.70;;;22.93;;
13455;SDS011;6800;50.940;6.940;2023-02-11T03:33:45;35.40;;;24.50;;
13455;SDS011;6800;50.940;6.940;2023-02-11T03:38:00;31.63;;;22.90;;
13455;SDS011;6800;50.940;6.940;2023-02-11T03:42:06;36.43;;;23.93;;
13455;SDS011;6800;50.940;6.940;2023-02-11T03:46:10;31.67;;;23.50;;
13455;SDS011;6800;50.940;6.940;2023-02-11T03:50:15;28.97;;;22.63;;
13455;SDS011;6800;50.940;6.940;2023-02-11T03:54:20;31.10;;;23.23;;
13455;SDS011;6800;50.940;6.940;2023-02-11T03:58:29;27.90;;;22.37;;
13455;SDS011;6800;50.940;6.940;2023-02-11T04:02:32;28.73;;;21.63;;
13455;SDS011;6800;50.940;6.940;2023-02-11T04:06:35;29.90;;;21.47;;
13455;SDS011;6800;50.940;6.940;2023-02-11T04:10:36;30.40;;;20.93;;
13455;SDS011;6800;50.940;6.940;2023-02-11T04:14:37;25.93;;;20.20;;
13455;SDS011;6800;50.940;6.940;2023-02-11T04:18:39;27.50;;;20.90;;
13455;SDS011;6800;50.940;6.940;2023-02-11T04:22:40;26.70;;;20.73;;
13455;SDS011;6800;50.940;6.940;2023-02-11T04:26:41;30.57;;;21.27;;
13455;SDS011;6800;50.940;6.940;2023-02-11T04:30:43;29.00;;;20.70;;
13455;SDS011;6800;50.940;6.940;2023-02-11T04:34:44;28.57;;;21.37;;
13455;SDS011;6800;50.940;6.940;2023-02-11T04:38:46;28.20;;;20.57;;
13455;SDS011;6800;50.940;6.940;2023-02-11T04:42:47;29.73;;;21.57;;
13455;SDS011;6800;50.940;6.940;2023-02-11T04:46:48;24.43;;;20.80;;
13455;SDS011;6800;50.940;6.940;2023-02-11T04:50:50;28.93;;;20.63;;
13455;SDS011;6800;50.940;6.940;2023-02-11T04:54:51;25.57;;;19.30;;
13455;SDS011;6800;50.940;6.940;2023-02-11T04:58:52;28.27;;;20.07;;
13455;SDS011;6800;50.940;6.940;2023-02-11T05:02:54;25.40;;;20.50;;
13455;SDS011;6800;50.940;6.940;2023-02-11T05:06:55;22.70;;;19.47;;
13455;SDS011;6800;50.940;6.940;2023-02-11T05:10:58;26.97;;;20.10;;
13455;SDS011;6800;50.940;6.940;2023-02-11T05:15:02;29.70;;;20.30;;
13455;SDS011;6800;50.940;6.940;2023-02-11T05:19:03;26.53;;;19.73;;
13455;SDS011;6800;50.940;6.940;2023-02-11T05:23:05;26.87;;;19.83;;
13455;SDS011;6800;50.940;6.940;2023-02-11T05:27:06;26.70;;;19.47;;
13455;SDS011;6800;50.940;6.940;2023-02-11T05:31:08;31.23;;;20.97;;
13455;SDS011;6800;50.940;6.940;2023-02-11T05:35:09;25.90;;;20.80;;
13455;SDS011;6800;50.940;6.940;2023-02-11T05:39:11;26.47;;;20.93;;
13455;SDS011;6800;50.940;6.940;2023-02-11T05:43:12;26.27;;;20.90;;
13455;SDS011;6800;50.940;6.940;2023-02-11T05:47:13;27.90;;;21.00;;
13455;SDS011;6800;50.940;6.940;2023-02-11T05:51:15;30.77;;;21.50;;
13455;SDS011;6800;50.940;6.940;2023-02-11T05:55:16;27.57;;;21.20;;
13455;SDS011;6800;50.940;6.940;2023-02-11T05:59:18;33.47;;;21.47;;
13455;SDS011;6800;50.940;6.940;2023-02-11T06:03:19;27.37;;;21.10;;
13455;SDS011;6800;50.940;6.940;2023-02-11T06:07:21;29.70;;;22.23;;
13455;SDS011;6800;50.940;6.940;2023-02-11T06:11:22;28.43;;;21.30;;
13455;SDS011;6800;50.940;6.940;2023-02-11T06:15:23;29.40;;;21.57;;
13455;SDS011;6800;50.940;6.940;2023-02-11T06:19:25;29.20;;;22.30;;
13455;SDS011;6800;50.940;6.940;2023-02-11T06:23:27;32.70;;;22.60;;
13455;SDS011;6800;50.940;6.940;2023-02-11T06:27:30;27.37;;;22.63;;
13455;SDS011;6800;50.940;6.940;2023-02-11T06:31:32;31.50;;;22.47;;
13455;SDS011;6800;50.940;6.940;2023-02-11T06:35:33;29.40;;;21.63;;
13455;SDS011;6800;50.940;6.940;2023-02-11T06:39:35;29.17;;;21.90;;
13455;SDS011;6800;50.940;6.940;2023-02-11T06:43:37;31.67;;;22.57;;
13455;SDS011;6800;50.940;6.940;2023-02-11T06:47:38;30.23;;;22.40;;
13455;SDS011;6800;50.940;6.940;2023-02-11T06:51:40;33.63;;;22.60;;
13455;SDS011;6800;50.940;6.940;2023-02-11T06:55:42;33.53;;;24.20;;
13455;SDS011;6800;50.940;6.940;2023-02-11T06:59:43;32.73;;;22.47;;
13455;SDS011;6800;50.940;6.940;2023-02-11T07:03:44;31.60;;;22.63;;
13455;SDS011;6800;50.940;6.940;2023-02-11T07:07:47;30.53;;;23.43;;
13455;SDS011;6800;50.940;6.940;2023-02-11T07:11:48;29.40;;;22.33;;
13455;SDS011;6800;50.940;6.940;2023-02-11T07:15:49;31.80;;;23.10;;
13455;SDS011;6800;50.940;6.940;2023-02-11T07:19:51;31.10;;;22.10;;
13455;SDS011;6800;50.940;6.940;2023-02-11T07:23:52;31.33;;;23.30;;
13455;SDS011;6800;50.940;6.940;2023-02-11T07:27:54;30.50;;;22.93;;
13455;SDS011;6800;50.940;6.940;2023-02-11T07:31:55;31.50;;;23.97;;
13455;SDS011;6800;50.940;6.940;2023-02-11T07:35:59;35.00;;;23.63;;
13455;SDS011;6800;50.940;6.940;2023-02-11T07:40:01;31.93;;;24.00;;
13455;SDS011;6800;50.940;6.940;2023-02-11T07:44:02;33.70;;;24.80;;
13455;SDS011;6800;50.940;6.940;2023-02-11T07:48:04;36.23;;;24.43;;
13455;SDS011;6800;50.940;6.940;2023-02-11T07:52:05;36.07;;;24.20;;
13455;SDS011;6800;50.940;6.940;2023-02-11T07:56:07;36.40;;;24.00;;
13455;SDS011;6800;50.940;6.940;2023-02-11T08:00:10;36.03;;;25.17;;
13455;SDS011;6800;50.940;6.940;2023-02-11T08:04:11;33.67;;;23.90;;
13455;SDS011;6800;50.940;6.940;2023-02-11T08:08:13;32.63;;;25.03;;
13455;SDS011;6800;50.940;6.940;2023-02-11T08:12:14;31.30;;;24.60;;
13455;SDS011;6800;50.940;6.940;2023-02-11T08:16:18;37.00;;;25.10;;
13455;SDS011;6800;50.940;6.940;2023-02-11T08:20:21;36.50;;;25.27;;
13455;SDS011;6800;50.940;6.940;2023-02-11T08:24:22;37.63;;;25.73;;
13455;SDS011;6800;50.940;6.940;2023-02-11T08:28:24;37.73;;;25.90;;
13455;SDS011;6800;50.940;6.940;2023-02-11T08:32:25;38.00;;;25.80;;
13455;SDS011;6800;50.940;6.940;2023-02-11T08:36:27;38.40;;;26.20;;
13455;SDS011;6800;50.940;6.940;2023-02-11T08:40:30;32.40;;;23.87;;
13455;SDS011;6800;50.940;6.940;2023-02-11T08:44:32;35.17;;;25.03;;
13455;SDS011;6800;50.940;6.940;2023-02-11T08:48:33;36.20;;;25.17;;
13455;SDS011;6800;50.940;6.940;2023-02-11T08:52:35;39.17;;;26.07;;
13455;SDS011;6800;50.940;6.940;2023-02-11T08:56:37;35.33;;;24.47;;
13455;SDS011;6800;50.940;6.940;2023-02-11T09:00:39;34.97;;;24.43;;
13455;SDS011;6800;50.940;6.940;2023-02-11T09:04:40;37.87;;;23.43;;
13455;SDS011;6800;50.940;6.940;2023-02-11T09:08:42;32.23;;;23.73;;
13455;SDS011;6800;50.940;6.940;2023-02-11T09:12:46;32.33;;;23.90;;
13455;SDS011;6800;50.940;6.940;2023-02-11T09:16:48;32.67;;;23.03;;
13455;SDS011;6800;50.940;6.940;2023-02-11T09:20:51;33.83;;;23.63;;
13455;SDS011;6800;50.940;6.940;2023-02-11T09:24:53;32.17;;;23.50;;
13455;SDS011;6800;50.940;6.940;2023-02-11T09:28:54;32.40;;;22.80;;
13455;SDS011;6800;50.940;6.940;2023-02-11T09:32:56;33.03;;;24.10;;
13455;SDS011;6800;50.940;6.940;2023-02-11T09:36:57;33.47;;;23.63;;
13455;SDS011;6800;50.940;6.940;2023-02-11T09:40:59;30.83;;;22.53;;
13455;SDS011;6800;50.940;6.940;2023-02-11T09:45:04;29.70;;;22.77;;
13455;SDS011;6800;50.940;6.940;2023-02-11T09:49:15;30.57;;;23.23;;
13455;SDS011;6800;50.940;6.940;2023-02-11T09:53:29;33.17;;;23.53;;
13455;SDS011;6800;50.940;6.940;2023-02-11T09:57:34;31.60;;;22.50;;
13455;SDS011;6800;50.940;6.940;2023-02-11T10:01:38;28.07;;;22.70;;
13455;SDS011;6800;50.940;6.940;2023-02-11T10:06:14;31.27;;;22.80;;
13455;SDS011;6800;50.940;6.940;2023-02-11T10:10:57;26.10;;;20.73;;
13455;SDS011;6800;50.940;6.940;2023-02-11T10:19:15;27.53;;;20.77;;
13455;SDS011;6800;50.940;6.940;2023-02-11T10:23:30;25.70;;;20.77;;
13455;SDS011;6800;50.940;6.940;2023-02-11T10:27:36;27.87;;;21.57;;
13455;SDS011;6800;50.940;6.940;2023-02-11T10:31:41;30.13;;;22.23;;
13455;SDS011;6800;50.940;6.940;2023-02-11T10:35:44;27.07;;;20.33;;
13455;SDS011;6800;50.940;6.940;2023-02-11T10:39:47;28.63;;;21.43;;
13455;SDS011;6800;50.940;6.940;2023-02-11T10:43:48;31.30;;;22.17;;
13455;SDS011;6800;50.940;6.940;2023-02-11T10:47:51;26.83;;;20.97;;
13455;SDS011;6800;50.940;6.940;2023-02-11T10:51:53;29.47;;;21.03;;
13455;SDS011;6800;50.940;6.940;2023-02-11T10:56:19;28.23;;;21.37;;
13455;SDS011;6800;50.940;6.940;2023-02-11T11:08:49;28.20;;;21.27;;
13455;SDS011;6800;50.940;6.940;2023-02-11T11:12:51;27.67;;;20.30;;
13455;SDS011;6800;50.940;6.940;2023-02-11T11:16:53;28.23;;;20.87;;
13455;SDS011;6800;50.940;6.940;2023-02-11T11:20:59;28.40;;;21.37;;
13455;SDS011;6800;50.940;6.940;2023-02-11T11:29:37;29.33;;;21.33;;
13455;SDS011;6800;50.940;6.940;2023-02-11T11:33:43;30.97;;;21.67;;
13455;SDS011;6800;50.940;6.940;2023-02-11T11:37:50;27.87;;;22.10;;
13455;SDS011;6800;50.940;6.940;2023-02-11T11:42:12;29.13;;;21.93;;
13455;SDS011;6800;50.940;6.940;2023-02-11T11:46:34;29.77;;;22.23;;
13455;SDS011;6800;50.940;6.940;2023-02-11T11:50:42;29.70;;;21.67;;
13455;SDS011;6800;50.940;6.940;2023-02-11T11:54:46;27.87;;;22.07;;
13455;SDS011;6800;50.940;6.940;2023-02-11T11:58:55;28.77;;;22.23;;
13455;SDS011;6800;50.940;6.940;2023-02-11T12:08:02;28.20;;;21.60;;
13455;SDS011;6800;50.940;6.940;2023-02-11T12:16:58;28.13;;;22.10;;
13455;SDS011;6800;50.940;6.940;2023-02-11T12:21:17;28.10;;;22.13;;
13455;SDS011;6800;50.940;6.940;2023-02-11T12:25:39;28.40;;;22.40;;
13455;SDS011;6800;50.940;6.940;2023-02-11T12:29:53;29.00;;;21.83;;
13455;SDS011;6800;50.940;6.940;2023-02-11T12:34:19;30.13;;;22.93;;
13455;SDS011;6800;50.940;6.940;2023-02-11T12:38:51;32.50;;;22.67;;
13455;SDS011;6800;50.940;6.940;2023-02-11T12:48:20;34.30;;;25.93;;
13455;SDS011;6800;50.940;6.940;2023-02-11T12:52:05;29.90;;;22.97;;
13455;SDS011;6800;50.940;6.940;2023-02-11T12:56:31;31.80;;;23.97;;
13455;SDS011;6800;50.940;6.940;2023-02-11T13:00:43;30.30;;;23.70;;
13455;SDS011;6800;50.940;6.940;2023-02-11T13:04:56;30.23;;;23.47;;
13455;SDS011;6800;50.940;6.940;2023-02-11T13:09:22;32.33;;;23.43;;
13455;SDS011;6800;50.940;6.940;2023-02-11T13:13:32;30.20;;;23.00;;
13455;SDS011;6800;50.940;6.940;2023-02-11T13:17:42;32.00;;;24.07;;
13455;SDS011;6800;50.940;6.940;2023-02-11T13:22:01;32.23;;;24.80;;
13455;SDS011;6800;50.940;6.940;2023-02-11T13:26:53;32.43;;;24.77;;
13455;SDS011;6800;50.940;6.940;2023-02-11T13:30:40;34.33;;;25.53;;
13455;SDS011;6800;50.940;6.940;2023-02-11T13:38:53;32.90;;;25.33;;
13455;SDS011;6800;50.940;6.940;2023-02-11T13:42:57;31.83;;;25.23;;
13455;SDS011;6800;50.940;6.940;2023-02-11T13:47:02;32.97;;;24.23;;
13455;SDS011;6800;50.940;6.940;2023-02-11T13:51:08;33.00;;;25.40;;
13455;SDS011;6800;50.940;6.940;2023-02-11T14:03:37;34.97;;;26.30;;
13455;SDS011;6800;50.940;6.940;2023-02-11T14:08:12;38.80;;;27.00;;
13455;SDS011;6800;50.940;6.940;2023-02-11T14:12:39;35.67;;;26.50;;
13455;SDS011;6800;50.940;6.940;2023-02-11T14:17:15;33.77;;;25.20;;
13455;SDS011;6800;50.940;6.940;2023-02-11T14:21:18;33.67;;;26.33;;
13455;SDS011;6800;50.940;6.940;2023-02-11T14:25:23;36.97;;;26.67;;
13455;SDS011;6800;50.940;6.940;2023-02-11T14:33:50;36.60;;;27.23;;
13455;SDS011;6800;50.940;6.940;2023-02-11T14:42:34;37.90;;;27.60;;
13455;SDS011;6800;50.940;6.940;2023-02-11T14:46:38;34.40;;;26.00;;
13455;SDS011;6800;50.940;6.940;2023-02-11T14:50:47;35.60;;;25.90;;
13455;SDS011;6800;50.940;6.940;2023-02-11T14:54:55;35.00;;;26.17;;
13455;SDS011;6800;50.940;6.940;2023-02-11T14:59:21;34.87;;;25.83;;
13455;SDS011;6800;50.940;6.940;2023-02-11T15:03:27;35.13;;;25.97;;
13455;SDS011;6800;50.940;6.940;2023-02-11T15:07:36;36.47;;;27.27;;
13455;SDS011;6800;50.940;6.940;2023-02-11T15:11:38;37.27;;;28.10;;
13455;SDS011;6800;50.940;6.940;2023-02-11T15:15:41;36.40;;;25.80;;
13455;SDS011;6800;50.940;6.940;2023-02-11T15:19:47;35.30;;;27.17;;
13455;SDS011;6800;50.940;6.940;2023-02-11T15:23:53;42.40;;;28.37;;
13455;SDS011;6800;50.940;6.940;2023-02-11T15:28:09;39.33;;;26.93;;
13455;SDS011;6800;50.940;6.940;2023-02-11T15:32:22;37.90;;;27.13;;
13455;SDS011;6800;50.940;6.940;2023-02-11T15:36:28;37.20;;;25.57;;
13455;SDS011;6800;50.940;6.940;2023-02-11T15:40:35;34.93;;;26.10;;
13455;SDS011;6800;50.940;6.940;2023-02-11T15:44:37;39.20;;;26.87;;
13455;SDS011;6800;50.940;6.940;2023-02-11T15:48:43;37.17;;;25.47;;
13455;SDS011;6800;50.940;6.940;2023-02-11T15:52:47;36.33;;;26.07;;
13455;SDS011;6800;50.940;6.940;2023-02-11T15:56:50;35.37;;;25.30;;
13455;SDS011;6800;50.940;6.940;2023-02-11T16:00:55;34.53;;;24.83;;
13455;SDS011;6800;50.940;6.940;2023-02-11T16:05:04;34.93;;;26.00;;
13455;SDS011;6800;50.940;6.940;2023-02-11T16:21:18;35.27;;;25.33;;
13455;SDS011;6800;50.940;6.940;2023-02-11T16:25:21;35.57;;;27.03;;
13455;SDS011;6800;50.940;6.940;2023-02-11T16:29:24;35.97;;;26.13;;
13455;SDS011;6800;50.940;6.940;2023-02-11T16:33:28;36.57;;;26.57;;
13455;SDS011;6800;50.940;6.940;2023-02-11T16:37:29;37.50;;;26.53;;
13455;SDS011;6800;50.940;6.940;2023-02-11T16:41:32;38.73;;;28.03;;
13455;SDS011;6800;50.940;6.940;2023-02-11T16:45:35;36.07;;;27.07;;
13455;SDS011;6800;50.940;6.940;2023-02-11T16:49:41;39.70;;;29.27;;
13455;SDS011;6800;50.940;6.940;2023-02-11T16:53:42;40.23;;;29.50;;
13455;SDS011;6800;50.940;6.940;2023-02-11T16:57:44;38.53;;;26.60;;
13455;SDS011;6800;50.940;6.940;2023-02-11T17:01:45;40.57;;;29.10;;
13455;SDS011;6800;50.940;6.940;2023-02-11T17:05:49;41.23;;;27.97;;
13455;SDS011;6800;50.940;6.940;2023-02-11T17:09:55;38.33;;;27.43;;
13455;SDS011;6800;50.940;6.940;2023-02-11T17:13:57;42.13;;;28.33;;
13455;SDS011;6800;50.940;6.940;2023-02-11T17:17:58;40.77;;;29.10;;
13455;SDS011;6800;50.940;6.940;2023-02-11T17:22:00;37.90;;;28.80;;
13455;SDS011;6800;50.940;6.940;2023-02-11T17:26:01;44.23;;;29.30;;
13455;SDS011;6800;50.940;6.940;2023-02-11T17:30:04;44.03;;;30.30;;
13455;SDS011;6800;50.940;6.940;2023-02-11T17:34:06;43.70;;;32.33;;
13455;SDS011;6800;50.940;6.940;2023-02-11T17:38:07;40.17;;;29.10;;
13455;SDS011;6800;50.940;6.940;2023-02-11T17:42:09;44.33;;;32.10;;
13455;SDS011;6800;50.940;6.940;2023-02-11T17:46:11;44.23;;;31.97;;
13455;SDS011;6800;50.940;6.940;2023-02-11T17:50:14;48.17;;;33.17;;
13455;SDS011;6800;50.940;6.940;2023-02-11T17:54:16;41.37;;;30.37;;
13455;SDS011;6800;50.940;6.940;2023-02-11T17:58:19;41.00;;;30.03;;
13455;SDS011;6800;50.940;6.940;2023-02-11T18:02:20;39.20;;;28.47;;
13455;SDS011;6800;50.940;6.940;2023-02-11T18:06:22;37.23;;;28.03;;
13455;SDS011;6800;50.940;6.940;2023-02-11T18:10:23;40.47;;;31.10;;
13455;SDS011;6800;50.940;6.940;2023-02-11T18:14:25;42.77;;;32.73;;
13455;SDS011;6800;50.940;6.940;2023-02-11T18:18:26;43.23;;;31.53;;
13455;SDS011;6800;50.940;6.940;2023-02-11T18:22:27;44.67;;;32.57;;
13455;SDS011;6800;50.940;6.940;2023-02-11T18:26:30;43.90;;;31.00;;
13455;SDS011;6800;50.940;6.940;2023-02-11T18:30:32;43.67;;;31.37;;
13455;SDS011;6800;50.940;6.940;2023-02-11T18:34:34;44.33;;;30.20;;
13455;SDS011;6800;50.940;6.940;2023-02-11T18:38:35;38.83;;;28.90;;
13455;SDS011;6800;50.940;6.940;2023-02-11T18:42:37;44.40;;;31.70;;
13455;SDS011;6800;50.940;6.940;2023-02-11T18:46:39;39.80;;;29.90;;
13455;SDS011;6800;50.940;6.940;2023-02-11T18:50:42;38.80;;;29.13;;
13455;SDS011;6800;50.940;6.940;2023-02-11T18:54:44;42.00;;;31.47;;
13455;SDS011;6800;50.940;6.940;2023-02-11T18:58:46;44.10;;;31.70;;
13455;SDS011;6800;50.940;6.940;2023-02-11T19:02:48;43.10;;;31.53;;
13455;SDS011;6800;50.940;6.940;2023-02-11T19:06:49;42.37;;;29.83;;
13455;SDS011;6800;50.940;6.940;2023-02-11T19:10:51;40.17;;;31.00;;
13455;SDS011;6800;50.940;6.940;2023-02-11T19:14:52;43.37;;;31.60;;
13455;SDS011;6800;50.940;6.940;2023-02-11T19:18:53;44.70;;;31.93;;
13455;SDS011;6800;50.940;6.940;2023-02-11T19:22:56;44.53;;;32.43;;
13455;SDS011;6800;50.940;6.940;2023-02-11T19:26:59;45.83;;;32.70;;
13455;SDS011;6800;50.940;6.940;2023-02-11T19:31:07;43.30;;;31.63;;
13455;SDS011;6800;50.940;6.940;2023-02-11T19:35:09;46.80;;;32.20;;
13455;SDS011;6800;50.940;6.940;2023-02-11T19:39:10;46.33;;;32.57;;
13455;SDS011;6800;50.940;6.940;2023-02-11T19:43:12;42.67;;;31.70;;
13455;SDS011;6800;50.940;6.940;2023-02-11T19:47:14;45.87;;;33.80;;
13455;SDS011;6800;50.940;6.940;2023-02-11T19:51:15;48.43;;;33.37;;
13455;SDS011;6800;50.940;6.940;2023-02-11T19:55:17;50.07;;;36.90;;
13455;SDS011;6800;50.940;6.940;2023-02-11T19:59:19;47.40;;;34.87;;
13455;SDS011;6800;50.940;6.940;2023-02-11T20:03:21;50.53;;;34.67;;
13455;SDS011;6800;50.940;6.940;2023-02-11T20:07:22;48.97;;;35.17;;
13455;SDS011;6800;50.940;6.940;2023-02-11T20:11:24;49.50;;;34.77;;
13455;SDS011;6800;50.940;6.940;2023-02-11T20:15:26;48.73;;;33.43;;
13455;SDS011;6800;50.940;6.940;2023-02-11T20:19:28;44.17;;;32.93;;
13455;SDS011;6800;50.940;6.940;2023-02-11T20:23:30;49.00;;;35.13;;
13455;SDS011;6800;50.940;6.940;2023-02-11T20:27:32;47.80;;;34.23;;
13455;SDS011;6800;50.940;6.940;2023-02-11T20:31:33;48.77;;;33.17;;
13455;SDS011;6800;50.940;6.940;2023-02-11T20:35:35;49.60;;;34.73;;
13455;SDS011;6800;50.940;6.940;2023-02-11T20:39:36;49.03;;;34.10;;
13455;SDS011;6800;50.940;6.940;2023-02-11T20:43:41;48.97;;;33.63;;
13455;SDS011;6800;50.940;6.940;2023-02-11T20:47:45;52.20;;;34.30;;
13455;SDS011;6800;50.940;6.940;2023-02-11T20:51:47;43.27;;;33.10;;
13455;SDS011;6800;50.940;6.940;2023-02-11T20:55:49;48.10;;;34.73;;
13455;SDS011;6800;50.940;6.940;2023-02-11T20:59:51;48.27;;;34.53;;
13455;SDS011;6800;50.940;6.940;2023-02-11T21:03:54;48.83;;;34.43;;
13455;SDS011;6800;50.940;6.940;2023-02-11T21:08:00;47.13;;;33.70;;
13455;SDS011;6800;50.940;6.940;2023-02-11T21:12:01;46.27;;;32.10;;
13455;SDS011;6800;50.940;6.940;2023-02-11T21:16:03;45.47;;;32.70;;
13455;SDS011;6800;50.940;6.940;2023-02-11T21:20:05;48.40;;;34.27;;
13455;SDS011;6800;50.940;6.940;2023-02-11T21:24:07;50.67;;;35.67;;
13455;SDS011;6800;50.940;6.940;2023-02-11T21:28:10;49.40;;;34.53;;
13455;SDS011;6800;50.940;6.940;2023-02-11T21:32:11;47.27;;;33.63;;
13455;SDS011;6800;50.940;6.940;2023-02-11T21:36:13;47.07;;;33.13;;
13455;SDS011;6800;50.940;6.940;2023-02-11T21:40:15;48.57;;;35.10;;
13455;SDS011;6800;50.940;6.940;2023-02-11T21:44:17;50.00;;;36.13;;
13455;SDS011;6800;50.940;6.940;2023-02-11T21:48:18;49.47;;;34.47;;
13455;SDS011;6800;50.940;6.940;2023-02-11T21:52:20;50.50;;;33.83;;
13455;SDS011;6800;50.940;6.940;2023-02-11T21:56:21;50.37;;;36.20;;
13455;SDS011;6800;50.940;6.940;2023-02-11T22:00:23;51.17;;;34.40;;
13455;SDS011;6800;50.940;6.940;2023-02-11T22:04:25;51.90;;;36.50;;
13455;SDS011;6800;50.940;6.940;2023-02-11T22:08:26;52.07;;;36.73;;
13455;SDS011;6800;50.940;6.940;2023-02-11T22:12:30;51.63;;;35.27;;
13455;SDS011;6800;50.940;6.940;2023-02-11T22:16:31;51.47;;;34.87;;
13455;SDS011;6800;50.940;6.940;2023-02-11T22:20:33;49.23;;;34.93;;
13455;SDS011;6800;50.940;6.940;2023-02-11T22:24:34;47.77;;;32.83;;
13455;SDS011;6800;50.940;6.940;2023-02-11T22:28:36;49.20;;;35.63;;
13455;SDS011;6800;50.940;6.940;2023-02-11T22:32:40;52.23;;;36.83;;
13455;SDS011;6800;50.940;6.940;2023-02-11T22:36:42;52.83;;;35.50;;
13455;SDS011;6800;50.940;6.940;2023-02-11T22:40:45;48.00;;;33.17;;
13455;SDS011;6800;50.940;6.940;2023-02-11T22:44:46;52.40;;;34.77;;
13455;SDS011;6800;50.940;6.940;2023-02-11T22:48:48;51.00;;;34.70;;
13455;SDS011;6800;50.940;6.940;2023-02-11T22:52:50;52.10;;;34.40;;
13455;SDS011;6800;50.940;6.940;2023-02-11T22:56:51;49.73;;;34.63;;
13455;SDS011;6800;50.940;6.940;2023-02-11T23:00:53;49.47;;;34.43;;
13455;SDS011;6800;50.940;6.940;2023-02-11T23:04:54;47.97;;;34.27;;
13455;SDS011;6800;50.940;6.940;2023-02-11T23:08:56;47.97;;;34.27;;
13455;SDS011;6800;50.940;6.940;2023-02-11T23:12:57;46.73;;;33.47;;
13455;SDS011;6800;50.940;6.940;2023-02-11T23:16:58;48.93;;;34.20;;
13455;SDS011;6800;50.940;6.940;2023-02-11T23:21:04;49.83;;;35.10;;
13455;SDS011;6800;50.940;6.940;2023-02-11T23:25:12;52.70;;;36.70;;
13455;SDS011;6800;50.940;6.940;2023-02-11T23:29:14;49.23;;;34.87;;
13455;SDS011;6800;50.940;6.940;2023-02-11T23:33:15;52.23;;;36.67;;
13455;SDS011;6800;50.940;6.940;2023-02-11T23:37:17;54.87;;;36.83;;
13455;SDS011;6800;50.940;6.940;2023-02-11T23:41:18;55.43;;;36.53;;
13455;SDS011;6800;50.940;6.940;2023-02-11T23:45:20;51.87;;;36.00;;
13455;SDS011;6800;50.940;6.940;2023-02-11T23:49:22;59.53;;;39.87;;
13455;SDS011;6800;50.940;6.940;2023-02-11T23:53:24;55.80;;;38.87;;
13455;SDS011;6800;50.940;6.940;2023-02-11T23:57:25;53.40;;;36.73;;
